Time;durP1;ratioP1;P1;durP2;ratioP2;P2;SDS_P1;SDS_P2;PMS_P1;PMS_P2;Temp;Humidity;BMP_temperature;BMP_pressure;BME280_temperature;BME280_humidity;BME280_pressure;Samples;Min_cycle;Max_cycle;Signal;HPM_P1;HPM_P2
2022/07/25 00:01:40;;;;;;;;;;;;;;;23.56;70.17;100612.63;5106840;27;19919;-79
2022/07/25 00:04:07;;;;;;;;;;;;;;;23.56;70.53;100623.59;5130937;27;20337;-80
2022/07/25 00:06:35;;;;;;;;;;;;;;;23.55;70.50;100619.16;5113112;27;19923;-80
2022/07/25 00:09:00;;;;;;;;;;;;;;;23.49;70.79;100620.19;5132711;27;19915;-80
2022/07/25 00:11:26;;;;;;;;;;;;;;;23.50;70.80;100624.56;5131830;27;19922;-80
2022/07/25 00:13:51;;;;;;;;;;;;;;;23.49;71.07;100625.66;5107665;28;19915;-80
2022/07/25 00:16:17;;;;;;;;;;;;;;;23.54;70.69;100636.72;5112412;27;19934;-80
2022/07/25 00:18:42;;;;;;;;;;;;;;;23.48;70.99;100637.69;5131089;27;19923;-80
2022/07/25 00:21:07;;;;;;;;;;;;;;;23.54;70.81;100633.97;5127258;27;20276;-80
2022/07/25 00:23:33;;;;;;;;;;;;;;;23.54;70.81;100632.06;5131504;27;19915;-80
2022/07/25 00:26:00;;;;;;;;;;;;;;;23.53;70.72;100632.28;5133237;27;19915;-81
2022/07/25 00:28:27;;;;;;;;;;;;;;;23.53;70.77;100629.56;5105303;27;19912;-79
2022/07/25 00:30:53;;;;;;;;;;;;;;;23.53;70.71;100629.56;5127168;27;19912;-82
2022/07/25 00:33:19;;;;;;;;;;;;;;;23.52;70.63;100630.66;5107887;27;20186;-81
2022/07/25 00:35:46;;;;;;;;;;;;;;;23.52;70.03;100627.91;5131968;27;19915;-79
2022/07/25 00:38:11;;;;;;;;;;;;;;;23.53;70.02;100637.78;5130945;27;19915;-81
2022/07/25 00:40:37;;;;;;;;;;;;;;;23.53;69.73;100641.38;5113335;27;19923;-81
2022/07/25 00:43:03;;;;;;;;;;;;;;;23.54;69.65;100642.22;5114150;27;19992;-80
2022/07/25 00:45:30;;;;;;;;;;;;;;;23.55;69.72;100649.34;5121210;27;19911;-81
2022/07/25 00:47:55;;;;;;;;;;;;;;;23.52;69.99;100642.44;5130763;27;19976;-80
2022/07/25 00:50:21;;;;;;;;;;;;;;;23.45;70.21;100660.16;5116130;27;20398;-81
2022/07/25 00:52:49;;;;;;;;;;;;;;;23.40;70.85;100688.31;5112639;27;19912;-80
2022/07/25 00:55:15;;;;;;;;;;;;;;;23.35;70.95;100711.00;5112495;27;20075;-81
2022/07/25 00:57:41;;;;;;;;;;;;;;;23.18;71.89;100751.25;5135684;27;19976;-80
2022/07/25 01:00:08;;;;;;;;;;;;;;;23.17;71.63;100768.78;5142232;27;19918;-79
2022/07/25 01:02:33;;;;;;;;;;;;;;;23.06;72.09;100769.63;5116366;27;19939;-81
2022/07/25 01:04:58;;;;;;;;;;;;;;;23.10;72.06;100757.09;5145018;27;20359;-82
2022/07/25 01:07:25;;;;;;;;;;;;;;;23.11;71.82;100742.34;5126127;27;19911;-82
2022/07/25 01:09:54;;;;;;;;;;;;;;;23.10;72.10;100748.88;5122900;27;19934;-81
2022/07/25 01:12:20;;;;;;;;;;;;;;;23.05;72.30;100765.22;5133192;27;19927;-82
2022/07/25 01:14:48;;;;;;;;;;;;;;;23.09;72.06;100764.50;5106631;27;19915;-82
2022/07/25 01:17:15;;;;;;;;;;;;;;;23.17;71.78;100733.13;5120938;27;19911;-81
2022/07/25 01:19:40;;;;;;;;;;;;;;;23.06;73.02;100712.03;5111696;27;20101;-81
2022/07/25 01:22:06;;;;;;;;;;;;;;;23.15;72.73;100724.28;5130351;27;20002;-80
2022/07/25 01:24:32;;;;;;;;;;;;;;;23.14;72.84;100748.16;5096412;27;19916;-81
2022/07/25 01:26:58;;;;;;;;;;;;;;;23.00;73.74;100756.91;5093338;28;19966;-80
2022/07/25 01:29:24;;;;;;;;;;;;;;;23.03;73.68;100734.47;5109389;27;19912;-82
2022/07/25 01:31:51;;;;;;;;;;;;;;;23.11;73.64;100732.19;5097161;28;19975;-81
2022/07/25 01:34:19;;;;;;;;;;;;;;;23.16;73.33;100746.00;5099397;28;19917;-82
2022/07/25 01:36:46;;;;;;;;;;;;;;;23.22;72.86;100754.34;5079514;28;19922;-82
2022/07/25 01:39:14;;;;;;;;;;;;;;;23.20;72.51;100735.38;5093271;27;19927;-82
2022/07/25 01:41:41;;;;;;;;;;;;;;;23.17;71.67;100735.84;5088817;28;19911;-80
2022/07/25 01:44:07;;;;;;;;;;;;;;;23.10;71.83;100733.25;5120764;27;20003;-81
2022/07/25 01:46:37;;;;;;;;;;;;;;;23.03;71.61;100720.75;5129712;27;19959;-83
2022/07/25 01:49:05;;;;;;;;;;;;;;;23.14;70.49;100714.41;5130744;27;20302;-83
2022/07/25 01:51:30;;;;;;;;;;;;;;;23.01;70.57;100714.69;5117133;27;20056;-81
2022/07/25 01:53:58;;;;;;;;;;;;;;;22.97;70.44;100717.06;5122814;27;19912;-81
2022/07/25 01:56:24;;;;;;;;;;;;;;;23.01;69.48;100687.25;5112817;27;20288;-82
2022/07/25 01:58:53;;;;;;;;;;;;;;;23.13;68.59;100699.03;5102308;27;19926;-83
2022/07/25 02:01:19;;;;;;;;;;;;;;;23.06;68.03;100692.84;5106471;28;20018;-81
2022/07/25 02:03:45;;;;;;;;;;;;;;;23.10;66.75;100696.78;5081275;28;19966;-81
2022/07/25 02:06:13;;;;;;;;;;;;;;;23.06;66.17;100701.06;5129685;27;20018;-81
2022/07/25 02:08:39;;;;;;;;;;;;;;;23.09;65.10;100670.44;5130747;27;19923;-83
2022/07/25 02:11:05;;;;;;;;;;;;;;;23.07;63.74;100687.13;5110313;28;19923;-80
2022/07/25 02:13:31;;;;;;;;;;;;;;;23.12;60.16;100679.00;5127230;28;19926;-83
2022/07/25 02:15:57;;;;;;;;;;;;;;;23.06;60.17;100668.16;5131226;28;19912;-81
2022/07/25 02:18:24;;;;;;;;;;;;;;;23.11;60.07;100674.59;5131564;28;19972;-82
2022/07/25 02:20:49;;;;;;;;;;;;;;;23.00;60.16;100670.00;5111095;28;19931;-81
2022/07/25 02:23:15;;;;;;;;;;;;;;;23.08;60.12;100666.84;5112307;28;20241;-81
2022/07/25 02:25:41;;;;;;;;;;;;;;;23.19;59.86;100662.41;5126738;28;19912;-82
2022/07/25 02:28:07;;;;;;;;;;;;;;;23.08;60.20;100666.84;5103116;28;19923;-82
2022/07/25 02:30:35;;;;;;;;;;;;;;;23.05;60.17;100666.53;5106019;28;20010;-83
2022/07/25 02:33:01;;;;;;;;;;;;;;;22.96;60.62;100669.59;5119507;28;20276;-81
2022/07/25 02:35:27;;;;;;;;;;;;;;;22.91;60.06;100669.50;5104575;28;19915;-81
2022/07/25 02:37:52;;;;;;;;;;;;;;;22.83;60.51;100661.66;5114524;28;19911;-82
2022/07/25 02:40:18;;;;;;;;;;;;;;;22.82;60.72;100657.25;5112989;28;19926;-81
2022/07/25 02:42:44;;;;;;;;;;;;;;;22.75;61.01;100648.31;5096458;28;19916;-82
2022/07/25 02:45:13;;;;;;;;;;;;;;;22.81;60.97;100655.59;5109646;28;20068;-82
2022/07/25 02:47:39;;;;;;;;;;;;;;;22.76;60.99;100645.34;5130047;28;20376;-82
2022/07/25 02:50:05;;;;;;;;;;;;;;;22.88;60.88;100644.50;5109932;28;19940;-82
2022/07/25 02:52:32;;;;;;;;;;;;;;;22.80;61.39;100633.91;5112017;28;19916;-81
2022/07/25 02:54:57;;;;;;;;;;;;;;;22.67;61.21;100626.81;5095949;28;20356;-81
2022/07/25 02:57:23;;;;;;;;;;;;;;;22.73;61.56;100626.66;5131212;28;19911;-82
2022/07/25 02:59:49;;;;;;;;;;;;;;;22.75;61.51;100613.53;5130735;28;20359;-81
2022/07/25 03:02:27;;;;;;;;;;;;;;;22.66;62.00;100620.47;5104014;28;20382;-82
2022/07/25 03:04:58;;;;;;;;;;;;;;;22.60;62.45;100618.72;5126959;28;19995;-81
2022/07/25 03:07:24;;;;;;;;;;;;;;;22.68;62.13;100618.31;5110892;28;19970;-82
2022/07/25 03:09:49;;;;;;;;;;;;;;;22.80;61.88;100625.69;5131859;28;19955;-82
2022/07/25 03:12:14;;;;;;;;;;;;;;;22.77;62.00;100621.53;5135356;28;19926;-80
2022/07/25 03:14:40;;;;;;;;;;;;;;;22.86;62.13;100614.56;5127138;27;19916;-84
2022/07/25 03:17:05;;;;;;;;;;;;;;;22.82;62.57;100613.41;5100620;28;19954;-82
2022/07/25 03:19:30;;;;;;;;;;;;;;;22.97;62.02;100608.22;5111792;27;20371;-80
2022/07/25 03:21:56;;;;;;;;;;;;;;;23.12;61.45;100612.38;5106989;27;20037;-80
2022/07/25 03:24:24;;;;;;;;;;;;;;;23.07;61.91;100613.09;5089588;28;19907;-81
2022/07/25 03:26:49;;;;;;;;;;;;;;;23.26;61.59;100608.25;5093448;27;19923;-81
2022/07/25 03:29:17;;;;;;;;;;;;;;;23.36;61.28;100594.69;5120605;27;20340;-81
2022/07/25 03:31:47;;;;;;;;;;;;;;;23.44;61.26;100601.72;5126932;27;19925;-83
2022/07/25 03:34:15;;;;;;;;;;;;;;;23.55;60.52;100586.25;5104161;28;19912;-81
2022/07/25 03:36:40;;;;;;;;;;;;;;;23.51;60.97;100582.34;5127271;27;20055;-81
2022/07/25 03:39:06;;;;;;;;;;;;;;;23.52;61.13;100582.09;5112508;27;19963;-82
2022/07/25 03:41:32;;;;;;;;;;;;;;;23.56;61.16;100586.00;5108066;28;20004;-82
2022/07/25 03:44:00;;;;;;;;;;;;;;;23.59;61.12;100587.41;5119948;27;19968;-83
2022/07/25 03:46:26;;;;;;;;;;;;;;;23.65;60.69;100588.31;5140947;27;19908;-83
2022/07/25 03:48:54;;;;;;;;;;;;;;;23.60;60.99;100592.66;5124589;27;19981;-82
2022/07/25 03:51:22;;;;;;;;;;;;;;;23.48;61.20;100591.06;5127596;27;19916;-81
2022/07/25 03:54:04;;;;;;;;;;;;;;;23.48;61.60;100583.66;5118162;27;20349;-82
2022/07/25 03:56:37;;;;;;;;;;;;;;;23.72;60.78;100581.59;5082990;28;20278;-81
2022/07/25 03:59:04;;;;;;;;;;;;;;;23.73;61.16;100580.50;5115260;27;20307;-80
2022/07/25 04:01:31;;;;;;;;;;;;;;;23.70;61.26;100574.69;5108872;27;19953;-83
2022/07/25 04:03:57;;;;;;;;;;;;;;;23.79;61.05;100579.53;5114508;27;19915;-81
2022/07/25 04:06:24;;;;;;;;;;;;;;;23.78;60.90;100577.03;5115121;27;20390;-80
2022/07/25 04:08:49;;;;;;;;;;;;;;;23.79;61.26;100576.81;5116162;27;20447;-85
2022/07/25 04:11:18;;;;;;;;;;;;;;;23.99;60.86;100589.16;5106923;28;19916;-86
2022/07/25 04:13:55;;;;;;;;;;;;;;;24.04;60.64;100594.72;5124980;27;19927;-79
2022/07/25 04:16:21;;;;;;;;;;;;;;;24.19;60.24;100597.72;5127514;27;19942;-84
2022/07/25 04:18:47;;;;;;;;;;;;;;;24.16;59.95;100622.09;5118754;27;19992;-85
2022/07/25 04:21:12;;;;;;;;;;;;;;;24.21;60.02;100642.25;5133758;27;20426;-87
2022/07/25 04:23:37;;;;;;;;;;;;;;;24.23;59.80;100641.97;5094080;27;19923;-84
2022/07/25 04:26:05;;;;;;;;;;;;;;;24.06;60.42;100638.44;5100458;28;19916;-85
2022/07/25 04:28:31;;;;;;;;;;;;;;;24.04;60.16;100635.91;5095227;28;20267;-84
2022/07/25 04:30:59;;;;;;;;;;;;;;;24.28;59.85;100643.97;5107064;27;19919;-85
2022/07/25 04:33:25;;;;;;;;;;;;;;;24.46;59.32;100654.66;5109438;27;19916;-85
2022/07/25 04:35:51;;;;;;;;;;;;;;;24.37;59.46;100656.19;5102534;28;19911;-83
2022/07/25 04:38:22;;;;;;;;;;;;;;;24.56;58.47;100660.34;5120479;27;19967;-83
2022/07/25 04:40:47;;;;;;;;;;;;;;;24.53;58.35;100666.34;5105221;28;20042;-82
2022/07/25 04:43:16;;;;;;;;;;;;;;;24.51;58.28;100675.94;5112635;27;19915;-86
2022/07/25 04:45:41;;;;;;;;;;;;;;;24.68;57.24;100673.13;5115191;27;19955;-85
2022/07/25 04:48:09;;;;;;;;;;;;;;;24.70;57.68;100668.22;5105336;27;20367;-84
2022/07/25 04:50:38;;;;;;;;;;;;;;;24.68;57.88;100664.88;5136479;27;19932;-87
2022/07/25 04:53:04;;;;;;;;;;;;;;;24.57;57.78;100662.00;5132489;27;19916;-88
2022/07/25 04:55:31;;;;;;;;;;;;;;;24.47;58.43;100661.03;5099431;27;19915;-86
2022/07/25 04:58:01;;;;;;;;;;;;;;;24.54;58.50;100668.03;5127087;27;19916;-85
2022/07/25 05:00:27;;;;;;;;;;;;;;;24.52;58.09;100659.19;5109032;27;19922;-87
2022/07/25 05:02:54;;;;;;;;;;;;;;;24.56;58.40;100678.75;5129600;27;19915;-82
2022/07/25 05:05:20;;;;;;;;;;;;;;;24.58;58.45;100682.94;5096499;27;20011;-83
2022/07/25 05:07:45;;;;;;;;;;;;;;;24.62;58.27;100697.81;5087377;27;19987;-85
2022/07/25 05:10:11;;;;;;;;;;;;;;;24.64;58.36;100712.13;5114053;27;20370;-86
2022/07/25 05:12:37;;;;;;;;;;;;;;;24.65;58.03;100718.44;5105501;27;19916;-82
2022/07/25 05:15:03;;;;;;;;;;;;;;;24.76;57.86;100719.44;5111779;27;19923;-83
2022/07/25 05:17:28;;;;;;;;;;;;;;;24.87;58.01;100721.25;5112897;27;19940;-83
2022/07/25 05:19:53;;;;;;;;;;;;;;;24.94;57.05;100721.88;5111104;27;19915;-83
2022/07/25 05:22:20;;;;;;;;;;;;;;;24.95;56.88;100725.47;5103211;27;19931;-84
2022/07/25 05:24:46;;;;;;;;;;;;;;;24.85;57.18;100724.25;5115070;27;19908;-86
2022/07/25 05:27:16;;;;;;;;;;;;;;;24.80;57.83;100742.59;5136879;27;19919;-82
2022/07/25 05:30:18;;;;;;;;;;;;;;;24.78;57.53;100756.59;5113661;27;19923;-84
2022/07/25 05:32:52;;;;;;;;;;;;;;;24.80;58.24;100759.91;5008226;28;19916;-86
2022/07/25 05:35:18;;;;;;;;;;;;;;;24.64;58.83;100761.59;5112116;27;19911;-83
2022/07/25 05:37:43;;;;;;;;;;;;;;;24.75;58.69;100761.78;5133397;27;20272;-79
2022/07/25 05:40:09;;;;;;;;;;;;;;;24.79;58.80;100768.41;5133680;27;19912;-81
2022/07/25 05:42:34;;;;;;;;;;;;;;;24.88;58.58;100766.06;5118620;27;19916;-79
2022/07/25 05:45:00;;;;;;;;;;;;;;;24.73;58.86;100762.00;5137710;27;19917;-79
2022/07/25 05:47:27;;;;;;;;;;;;;;;24.80;58.89;100759.09;5119730;27;19919;-79
2022/07/25 05:49:53;;;;;;;;;;;;;;;24.97;58.89;100768.13;5097927;27;19923;-79
2022/07/25 05:52:18;;;;;;;;;;;;;;;24.81;59.44;100760.75;5113406;27;19911;-80
2022/07/25 05:54:43;;;;;;;;;;;;;;;24.93;58.86;100752.38;5112112;27;19915;-81
2022/07/25 05:57:11;;;;;;;;;;;;;;;25.04;58.66;100745.94;5113075;27;20272;-85
2022/07/25 05:59:38;;;;;;;;;;;;;;;25.18;58.26;100743.66;5128560;27;20386;-82
2022/07/25 06:02:05;;;;;;;;;;;;;;;25.28;58.11;100741.84;5131413;27;19999;-85
2022/07/25 06:04:31;;;;;;;;;;;;;;;25.43;57.80;100737.66;5112867;28;19924;-83
2022/07/25 06:06:56;;;;;;;;;;;;;;;25.41;57.63;100737.88;5091905;28;19981;-83
2022/07/25 06:09:22;;;;;;;;;;;;;;;25.44;58.04;100742.88;5106571;28;19931;-83
2022/07/25 06:11:48;;;;;;;;;;;;;;;25.75;56.80;100736.88;5091699;28;19927;-82
2022/07/25 06:14:14;;;;;;;;;;;;;;;25.85;56.79;100726.78;5105159;28;19930;-82
2022/07/25 06:16:40;;;;;;;;;;;;;;;25.86;56.04;100730.38;5101009;28;19962;-82
2022/07/25 06:19:05;;;;;;;;;;;;;;;25.75;56.49;100726.66;5105327;28;19923;-83
2022/07/25 06:21:34;;;;;;;;;;;;;;;25.92;55.77;100728.50;5101403;28;20022;-84
2022/07/25 06:23:59;;;;;;;;;;;;;;;26.08;55.20;100722.03;5099496;28;20003;-84
2022/07/25 06:26:25;;;;;;;;;;;;;;;26.36;54.63;100722.81;5082656;28;19987;-84
2022/07/25 06:28:50;;;;;;;;;;;;;;;26.59;54.35;100724.38;5109305;28;19920;-83
2022/07/25 06:31:16;;;;;;;;;;;;;;;26.71;53.59;100730.50;5111009;28;19954;-83
2022/07/25 06:33:43;;;;;;;;;;;;;;;26.90;52.78;100722.63;5103961;28;20002;-82
2022/07/25 06:36:11;;;;;;;;;;;;;;;27.17;52.15;100726.06;5109223;28;19930;-81
2022/07/25 06:38:40;;;;;;;;;;;;;;;27.25;52.02;100721.13;5108942;28;19951;-86
2022/07/25 06:41:05;;;;;;;;;;;;;;;27.47;51.21;100723.72;5116701;28;19998;-86
2022/07/25 06:43:32;;;;;;;;;;;;;;;27.78;50.56;100719.88;5117240;28;20023;-87
2022/07/25 06:45:57;;;;;;;;;;;;;;;27.76;50.10;100715.75;5115387;28;19916;-84
2022/07/25 06:48:24;;;;;;;;;;;;;;;28.10;49.84;100726.31;5101044;28;19923;-88
2022/07/25 06:50:50;;;;;;;;;;;;;;;28.40;48.76;100725.44;5114349;28;19922;-86
2022/07/25 06:53:15;;;;;;;;;;;;;;;28.60;47.93;100725.44;5121324;28;19946;-86
2022/07/25 06:55:47;;;;;;;;;;;;;;;29.05;47.01;100731.09;5119127;28;19951;-84
2022/07/25 06:58:12;;;;;;;;;;;;;;;29.31;45.75;100723.53;5103409;28;19923;-83
2022/07/25 07:00:38;;;;;;;;;;;;;;;29.56;44.62;100725.34;5113651;28;19922;-84
2022/07/25 07:03:03;;;;;;;;;;;;;;;29.85;43.90;100727.38;5103551;28;19912;-83
2022/07/25 07:05:38;;;;;;;;;;;;;;;30.15;42.97;100725.50;5112026;28;19929;-88
2022/07/25 07:08:03;;;;;;;;;;;;;;;30.42;42.28;100725.00;5112880;28;20284;-84
2022/07/25 07:10:30;;;;;;;;;;;;;;;30.44;41.39;100729.16;5112276;28;19919;-82
2022/07/25 07:13:18;;;;;;;;;;;;;;;30.38;41.02;100735.03;5115013;28;19916;-82
2022/07/25 07:15:48;;;;;;;;;;;;;;;30.52;41.06;100737.94;5114116;28;20264;-86
2022/07/25 07:18:15;;;;;;;;;;;;;;;30.70;40.45;100737.19;5104240;27;19915;-86
2022/07/25 07:20:43;;;;;;;;;;;;;;;30.68;40.78;100728.34;5133628;27;20627;-92
2022/07/25 07:23:09;;;;;;;;;;;;;;;30.65;41.14;100728.94;5117324;27;19938;-85
2022/07/25 07:25:36;;;;;;;;;;;;;;;30.85;40.56;100737.03;5116947;27;20389;-85
2022/07/25 07:28:01;;;;;;;;;;;;;;;31.11;40.35;100734.78;5088390;27;20341;-83
2022/07/25 07:30:29;;;;;;;;;;;;;;;31.19;40.66;100733.31;5100788;27;19994;-84
2022/07/25 07:32:55;;;;;;;;;;;;;;;31.17;40.76;100731.97;5132157;27;20328;-86
2022/07/25 07:35:24;;;;;;;;;;;;;;;31.17;40.73;100731.97;5135487;27;19967;-83
2022/07/25 07:37:50;;;;;;;;;;;;;;;31.21;40.39;100744.97;5124820;27;19915;-84
2022/07/25 07:40:16;;;;;;;;;;;;;;;31.24;40.46;100747.13;5119683;28;19954;-80
2022/07/25 07:42:43;;;;;;;;;;;;;;;31.19;40.61;100738.03;5103572;27;20737;-89
2022/07/25 07:45:13;;;;;;;;;;;;;;;31.29;40.69;100741.50;5140513;27;19983;-82
2022/07/25 07:47:41;;;;;;;;;;;;;;;31.86;39.46;100744.31;5118549;27;19915;-87
2022/07/25 07:50:07;;;;;;;;;;;;;;;31.87;39.49;100742.38;5135011;27;19912;-81
2022/07/25 07:52:33;;;;;;;;;;;;;;;32.23;38.85;100750.16;5127000;27;19964;-84
2022/07/25 07:57:48;;;;;;;;;;;;;;;32.56;37.66;100740.69;5132459;27;20453;-81
2022/07/25 08:00:15;;;;;;;;;;;;;;;32.16;37.80;100745.81;5133050;27;19923;-84
2022/07/25 08:02:50;;;;;;;;;;;;;;;32.12;38.36;100743.94;5096038;27;19924;-82
2022/07/25 08:05:26;;;;;;;;;;;;;;;32.05;38.67;100741.53;5120730;27;19922;-82
2022/07/25 08:07:52;;;;;;;;;;;;;;;31.83;38.55;100733.81;5127842;27;20026;-83
2022/07/25 08:10:24;;;;;;;;;;;;;;;31.15;39.65;100742.53;5113366;27;20093;-86
2022/07/25 08:12:50;;;;;;;;;;;;;;;31.10;40.09;100744.25;5112940;27;19915;-84
2022/07/25 08:15:17;;;;;;;;;;;;;;;31.20;40.18;100748.03;5103086;28;19912;-83
2022/07/25 08:17:45;;;;;;;;;;;;;;;31.16;40.51;100745.00;5111571;27;20279;-81
2022/07/25 08:20:12;;;;;;;;;;;;;;;31.03;40.53;100756.84;5111233;28;19935;-81
2022/07/25 08:22:43;;;;;;;;;;;;;;;30.71;41.38;100758.25;5109548;28;19912;-82
2022/07/25 08:25:13;;;;;;;;;;;;;;;30.44;42.05;100761.59;5109918;28;20569;-82
2022/07/25 08:27:39;;;;;;;;;;;;;;;30.13;43.07;100761.81;5094185;28;20379;-81
2022/07/25 08:30:07;;;;;;;;;;;;;;;30.15;43.18;100767.91;5111138;28;19951;-81
2022/07/25 08:32:33;;;;;;;;;;;;;;;29.97;43.74;100772.22;5109849;28;19920;-80
2022/07/25 08:35:02;;;;;;;;;;;;;;;29.78;44.27;100771.22;5110783;28;20601;-81
2022/07/25 08:37:28;;;;;;;;;;;;;;;29.60;44.92;100779.06;5111623;28;20004;-81
2022/07/25 08:39:55;;;;;;;;;;;;;;;29.64;44.86;100777.38;5111496;28;19958;-81
2022/07/25 08:42:20;;;;;;;;;;;;;;;29.38;45.54;100768.34;5112678;28;19979;-81
2022/07/25 08:44:48;;;;;;;;;;;;;;;29.71;44.93;100765.16;5104597;28;20356;-82
2022/07/25 08:47:14;;;;;;;;;;;;;;;30.19;44.05;100765.38;5110935;28;19976;-80
2022/07/25 08:49:39;;;;;;;;;;;;;;;30.14;44.01;100765.44;5109017;28;19959;-81
2022/07/25 08:52:08;;;;;;;;;;;;;;;30.35;43.24;100758.63;5104093;28;19922;-81
2022/07/25 08:54:37;;;;;;;;;;;;;;;30.86;42.62;100763.69;5110343;28;20015;-82
2022/07/25 08:57:04;;;;;;;;;;;;;;;31.06;41.56;100751.50;5111413;28;20026;-81
2022/07/25 08:59:30;;;;;;;;;;;;;;;31.21;41.39;100758.84;5102155;28;19993;-80
2022/07/25 09:01:57;;;;;;;;;;;;;;;31.08;41.03;100756.78;5112619;28;20376;-82
2022/07/25 09:04:23;;;;;;;;;;;;;;;30.77;41.73;100748.78;5093791;28;19911;-82
2022/07/25 09:06:49;;;;;;;;;;;;;;;30.99;41.24;100753.00;5107701;28;19920;-80
2022/07/25 09:09:14;;;;;;;;;;;;;;;31.24;39.77;100763.78;5105036;28;20356;-81
2022/07/25 09:11:40;;;;;;;;;;;;;;;31.59;40.05;100753.34;5108095;28;20437;-82
2022/07/25 09:14:06;;;;;;;;;;;;;;;31.80;39.64;100755.84;5105059;28;19916;-80
2022/07/25 09:16:32;;;;;;;;;;;;;;;32.52;38.22;100755.50;5106470;28;19911;-80
2022/07/25 09:19:06;;;;;;;;;;;;;;;32.40;38.12;100755.97;5113130;27;19999;-82
2022/07/25 09:21:31;;;;;;;;;;;;;;;31.88;39.25;100760.69;5113457;27;19966;-82
2022/07/25 09:24:06;;;;;;;;;;;;;;;31.89;39.26;100762.34;5130981;27;19951;-79
2022/07/25 09:26:31;;;;;;;;;;;;;;;31.98;39.38;100763.34;5111078;27;20315;-81
2022/07/25 09:29:00;;;;;;;;;;;;;;;31.67;39.31;100765.75;5112968;27;19937;-80
2022/07/25 09:31:31;;;;;;;;;;;;;;;31.42;40.13;100764.13;5132118;27;20312;-80
2022/07/25 09:33:58;;;;;;;;;;;;;;;31.08;41.12;100773.44;5130317;27;19955;-80
2022/07/25 09:36:24;;;;;;;;;;;;;;;30.81;41.59;100771.19;5123295;27;19919;-81
2022/07/25 09:38:51;;;;;;;;;;;;;;;30.72;42.05;100762.72;5095313;27;20038;-79
2022/07/25 09:41:17;;;;;;;;;;;;;;;30.63;41.91;100768.06;5113473;27;19935;-80
2022/07/25 09:43:43;;;;;;;;;;;;;;;30.38;42.44;100769.13;5107822;27;20335;-81
2022/07/25 09:46:10;;;;;;;;;;;;;;;30.33;43.12;100765.59;5131319;27;19935;-79
2022/07/25 09:48:38;;;;;;;;;;;;;;;30.11;43.40;100780.72;5128673;27;19912;-80
2022/07/25 09:51:04;;;;;;;;;;;;;;;30.20;43.17;100778.94;5113282;27;19929;-80
2022/07/25 09:53:31;;;;;;;;;;;;;;;30.52;42.69;100774.00;5130682;27;19911;-79
2022/07/25 09:55:57;;;;;;;;;;;;;;;31.47;41.28;100764.91;5097049;27;20387;-80
2022/07/25 09:58:26;;;;;;;;;;;;;;;32.35;39.36;100758.84;5111279;27;19911;-81
2022/07/25 10:00:53;;;;;;;;;;;;;;;33.10;37.50;100756.94;5131923;27;19920;-82
2022/07/25 10:03:37;;;;;;;;;;;;;;;33.63;36.68;100761.94;5097608;28;19923;-79
2022/07/25 10:06:07;;;;;;;;;;;;;;;33.45;36.84;100758.13;5117809;28;19916;-87
2022/07/25 10:08:42;;;;;;;;;;;;;;;33.42;36.74;100759.56;5121572;28;19923;-85
2022/07/25 10:11:18;;;;;;;;;;;;;;;33.97;36.35;100752.19;5127099;27;19915;-84
2022/07/25 10:13:58;;;;;;;;;;;;;;;34.47;35.29;100754.88;5138452;28;19911;-86
2022/07/25 10:16:25;;;;;;;;;;;;;;;33.90;35.60;100749.84;5146345;28;19919;-87
2022/07/25 10:18:53;;;;;;;;;;;;;;;33.68;36.30;100750.66;5123421;28;19915;-87
2022/07/25 10:21:18;;;;;;;;;;;;;;;33.57;36.94;100760.38;5142670;28;19915;-85
2022/07/25 10:23:47;;;;;;;;;;;;;;;33.00;37.38;100750.41;5122996;28;19922;-88
2022/07/25 10:26:18;;;;;;;;;;;;;;;32.79;38.06;100751.94;5110774;27;20025;-87
2022/07/25 10:28:56;;;;;;;;;;;;;;;32.67;38.93;100748.84;5123340;27;19916;-86
2022/07/25 10:31:25;;;;;;;;;;;;;;;31.94;40.59;100740.06;5129982;27;19916;-86
2022/07/25 10:33:55;;;;;;;;;;;;;;;31.52;41.73;100747.34;5115377;27;19915;-86
2022/07/25 10:36:22;;;;;;;;;;;;;;;31.72;41.27;100735.91;5116867;27;19959;-85
2022/07/25 10:39:11;;;;;;;;;;;;;;;31.60;41.64;100730.00;5123785;27;19926;-85
2022/07/25 10:41:41;;;;;;;;;;;;;;;33.84;37.64;100735.22;5138947;27;19911;-86
2022/07/25 10:44:13;;;;;;;;;;;;;;;35.10;35.68;100730.53;5117302;27;19927;-88
2022/07/25 10:46:47;;;;;;;;;;;;;;;36.61;32.25;100727.06;5117058;28;19915;-88
2022/07/25 10:49:20;;;;;;;;;;;;;;;36.74;32.24;100723.22;5133518;27;20236;-85
2022/07/25 10:51:55;;;;;;;;;;;;;;;37.33;31.58;100727.19;5135455;27;20411;-87
2022/07/25 10:54:24;;;;;;;;;;;;;;;37.24;31.66;100720.84;5118977;27;19934;-86
2022/07/25 10:56:50;;;;;;;;;;;;;;;35.43;34.10;100716.13;5138518;27;19917;-82
2022/07/25 10:59:25;;;;;;;;;;;;;;;34.82;35.88;100715.97;5113630;27;19921;-83
2022/07/25 11:01:51;;;;;;;;;;;;;;;33.47;39.04;100713.22;5135423;27;19923;-83
2022/07/25 11:04:16;;;;;;;;;;;;;;;32.66;41.15;100708.22;5116048;27;20034;-83
2022/07/25 11:06:42;;;;;;;;;;;;;;;32.56;41.62;100715.63;5117180;27;20013;-85
2022/07/25 11:09:26;;;;;;;;;;;;;;;31.96;43.83;100705.28;5133925;27;19916;-86
2022/07/25 11:11:53;;;;;;;;;;;;;;;32.16;44.04;100706.06;5144334;27;19911;-86
2022/07/25 11:14:29;;;;;;;;;;;;;;;32.40;43.50;100705.88;5142269;27;19927;-83
2022/07/25 11:16:55;;;;;;;;;;;;;;;31.93;43.84;100697.50;5119939;27;19912;-85
2022/07/25 11:19:26;;;;;;;;;;;;;;;31.78;44.25;100699.72;5149845;27;19974;-86
2022/07/25 11:22:00;;;;;;;;;;;;;;;32.14;43.60;100709.13;5130402;27;20416;-89
2022/07/25 11:24:43;;;;;;;;;;;;;;;31.29;45.79;100702.63;5101926;27;20225;-86
2022/07/25 11:27:11;;;;;;;;;;;;;;;31.45;45.39;100703.28;5121380;27;20002;-87
2022/07/25 11:29:43;;;;;;;;;;;;;;;31.58;45.01;100701.66;5121743;27;19984;-91
2022/07/25 11:32:09;;;;;;;;;;;;;;;32.10;43.92;100701.69;5150109;27;19911;-87
2022/07/25 11:34:40;;;;;;;;;;;;;;;31.64;44.75;100694.94;5132539;27;19947;-88
2022/07/25 11:37:06;;;;;;;;;;;;;;;31.45;45.32;100702.44;5129935;27;19911;-83
2022/07/25 11:39:32;;;;;;;;;;;;;;;30.89;47.18;100702.03;5126875;27;20275;-85
2022/07/25 11:41:58;;;;;;;;;;;;;;;31.33;46.30;100698.13;5139695;27;19933;-86
2022/07/25 11:44:36;;;;;;;;;;;;;;;30.91;47.38;100699.78;5103706;27;19915;-87
2022/07/25 11:47:02;;;;;;;;;;;;;;;30.85;47.67;100695.41;5120245;27;19918;-85
2022/07/25 11:49:27;;;;;;;;;;;;;;;30.22;49.02;100692.72;5145160;27;19915;-87
2022/07/25 11:51:52;;;;;;;;;;;;;;;29.83;50.52;100700.00;5131993;27;19915;-86
2022/07/25 11:54:24;;;;;;;;;;;;;;;29.88;50.64;100685.25;5125480;27;19980;-86
2022/07/25 11:56:49;;;;;;;;;;;;;;;29.68;50.93;100683.47;5108528;27;19911;-83
2022/07/25 11:59:16;;;;;;;;;;;;;;;29.37;51.68;100685.59;5136607;27;19968;-83
2022/07/25 12:01:44;;;;;;;;;;;;;;;28.86;52.25;100700.47;5127443;27;19919;-85
2022/07/25 12:04:20;;;;;;;;;;;;;;;28.12;54.87;100688.16;5145134;27;19926;-88
2022/07/25 12:07:04;;;;;;;;;;;;;;;27.70;55.67;100692.00;5145146;27;19926;-85
2022/07/25 12:09:31;;;;;;;;;;;;;;;27.54;56.25;100686.44;5117188;27;19915;-83
2022/07/25 12:12:00;;;;;;;;;;;;;;;27.67;56.98;100684.25;5123101;27;19959;-84
2022/07/25 12:14:28;;;;;;;;;;;;;;;28.15;55.89;100691.19;5122677;27;19923;-83
2022/07/25 12:16:57;;;;;;;;;;;;;;;28.15;55.74;100682.91;5117315;27;20390;-82
2022/07/25 12:19:23;;;;;;;;;;;;;;;28.29;55.02;100688.69;5101402;27;19915;-84
2022/07/25 12:21:49;;;;;;;;;;;;;;;28.51;54.40;100682.03;5122895;27;19915;-81
2022/07/25 12:24:23;;;;;;;;;;;;;;;28.49;54.55;100682.31;5131426;27;19915;-83
2022/07/25 12:26:48;;;;;;;;;;;;;;;28.25;54.96;100690.34;5104289;27;19920;-82
2022/07/25 12:29:16;;;;;;;;;;;;;;;28.17;55.48;100679.88;5109402;27;20012;-80
2022/07/25 12:31:41;;;;;;;;;;;;;;;27.92;56.00;100687.06;5095856;27;19931;-83
2022/07/25 12:34:07;;;;;;;;;;;;;;;27.82;56.47;100687.03;5109956;27;19919;-82
2022/07/25 12:36:39;;;;;;;;;;;;;;;27.64;57.30;100680.09;5110691;27;19930;-86
2022/07/25 12:39:17;;;;;;;;;;;;;;;27.82;56.16;100675.97;5122022;27;19919;-85
2022/07/25 12:41:46;;;;;;;;;;;;;;;27.83;56.63;100679.56;5095473;27;19915;-83